ADDS METAR Data INFO
IDs: Format: Raw Decoded Include TAF

Data at: 1900 UTC 22 Sep 2017

METAR for:PAAK (Atka Arpt, AK, US)
Text:PAAK 221856Z AUTO 32009G14KT 10SM SCT030 BKN036 08/02 A2996 RMK AO2 SLP147 T00780017
Temperature: 7.8°C ( 46°F)
Dewpoint: 1.7°C ( 35°F) [RH = 65%]
Pressure (altimeter):29.96 inches Hg (1014.6 mb) [Sea level pressure: 1014.7 mb]
Winds:from the NW (320 degrees) at 10 MPH (9 knots; 4.6 m/s) gusting to 16 MPH (14 knots; 7.2 m/s)
Visibility:10 or more sm (16+ km)
Ceiling:3600 feet AGL
Clouds: scattered clouds at 3000 feet AGL, broken clouds at 3600 feet AGL
QC Flag:automated observation with no human augmentation
Text:PAAK 221756Z AUTO 32010KT 10SM BKN033 07/02 A2995 RMK AO2 SLP143 T00670022 10078 20056 50013
Temperature: 6.7°C ( 44°F)
Dewpoint: 2.2°C ( 36°F) [RH = 73%]
Pressure (altimeter):29.95 inches Hg (1014.3 mb) [Sea level pressure: 1014.3 mb]
Winds:from the NW (320 degrees) at 12 MPH (10 knots; 5.1 m/s)
Visibility:10 or more sm (16+ km)
Ceiling:3300 feet AGL
Clouds: broken clouds at 3300 feet AGL
QC Flag:automated observation with no human augmentation
Text:PAAK 221656Z AUTO 01004KT 10SM OVC037 07/01 A2997 RMK AO2 SLP149 T00720011
Temperature: 7.2°C ( 45°F)
Dewpoint: 1.1°C ( 34°F) [RH = 65%]
Pressure (altimeter):29.97 inches Hg (1015.0 mb) [Sea level pressure: 1014.9 mb]
Winds:from the N (10 degrees) at 5 MPH (4 knots; 2.1 m/s)
Visibility:10 or more sm (16+ km)
Ceiling:3700 feet AGL
Clouds: overcast cloud deck at 3700 feet AGL
QC Flag:automated observation with no human augmentation
Text:PAAK 221556Z AUTO 33006KT 10SM OVC035 07/02 A2992 RMK AO2 SLP133 T00720022
Temperature: 7.2°C ( 45°F)
Dewpoint: 2.2°C ( 36°F) [RH = 70%]
Pressure (altimeter):29.92 inches Hg (1013.3 mb) [Sea level pressure: 1013.3 mb]
Winds:from the NNW (330 degrees) at 7 MPH (6 knots; 3.1 m/s)
Visibility:10 or more sm (16+ km)
Ceiling:3500 feet AGL
Clouds: overcast cloud deck at 3500 feet AGL
QC Flag:automated observation with no human augmentation
Text:PAAK 221456Z AUTO 02008G20KT 10SM BKN035 08/01 A2991 RMK AO2 SLP130 T00780011 53015
Temperature: 7.8°C ( 46°F)
Dewpoint: 1.1°C ( 34°F) [RH = 63%]
Pressure (altimeter):29.91 inches Hg (1013.0 mb) [Sea level pressure: 1013.0 mb]
Winds:from the NNE (20 degrees) at 9 MPH (8 knots; 4.1 m/s) gusting to 23 MPH (20 knots; 10.3 m/s)
Visibility:10 or more sm (16+ km)
Ceiling:3500 feet AGL
Clouds: broken clouds at 3500 feet AGL
QC Flag:automated observation with no human augmentation
Text:PAAK 221356Z AUTO 00000KT 10SM BKN038 07/01 A2989 RMK AO2 SLP123 T00670011
Temperature: 6.7°C ( 44°F)
Dewpoint: 1.1°C ( 34°F) [RH = 67%]
Pressure (altimeter):29.89 inches Hg (1012.3 mb) [Sea level pressure: 1012.3 mb]
Winds:calm
Visibility:10 or more sm (16+ km)
Ceiling:3800 feet AGL
Clouds: broken clouds at 3800 feet AGL
QC Flag:automated observation with no human augmentation

TAF for:PAAK (Atka Arpt, AK, US)
Text:No data found